Terminal Aerodrome Forecast
Issued by NWS

Home | Current Version | Previous Version | Text Only | Print | Product List | Glossary On
Versions: 1 2 3 4 5 6 7 8 9 10 11 12 13 14 15 16
753
FTUS43 KOAX 182320
TAFSNY
TAF
KSNY 182320Z 1900/1924 13007KT P6SM SKC
     FM190800 22008KT P6SM SKC
     FM191500 28009KT P6SM SCT100
     FM192000 33008KT P6SM SCT100=

USA.gov is the U.S. government's official web portal to all federal, state and local government web resources and services.